createdAt,value
2017-07-26T00:01:24.662Z,4.20
2017-07-26T00:03:53.580Z,3.78
2017-07-26T00:06:22.493Z,3.53
2017-07-26T00:08:51.407Z,3.20
2017-07-26T00:11:20.322Z,2.90
2017-07-26T00:13:49.280Z,3.25
2017-07-26T00:16:18.163Z,3.03
2017-07-26T00:18:47.088Z,3.40
2017-07-26T00:21:15.982Z,2.53
2017-07-26T00:23:44.890Z,2.83
2017-07-26T00:26:13.782Z,2.45
2017-07-26T00:28:42.695Z,2.35
2017-07-26T00:31:11.651Z,2.47
2017-07-26T00:33:40.876Z,3.00
2017-07-26T00:36:09.812Z,2.10
2017-07-26T00:38:38.746Z,3.55
2017-07-26T00:41:07.664Z,2.75
2017-07-26T00:43:36.530Z,2.00
2017-07-26T00:46:05.428Z,2.28
2017-07-26T00:48:34.309Z,3.97
2017-07-26T00:51:03.180Z,2.53
2017-07-26T00:53:32.046Z,2.33
2017-07-26T00:56:00.929Z,2.97
2017-07-26T00:58:29.835Z,2.42
2017-07-26T01:00:58.764Z,2.60
2017-07-26T01:03:27.652Z,3.08
2017-07-26T01:05:56.552Z,3.05
2017-07-26T01:08:25.435Z,3.72
2017-07-26T01:10:54.347Z,2.83
2017-07-26T01:13:23.363Z,2.78
2017-07-26T01:15:52.262Z,3.80
2017-07-26T01:18:21.144Z,2.70
2017-07-26T01:20:50.134Z,6.47
2017-07-26T01:23:19.053Z,3.78
2017-07-26T01:26:18.386Z,2.55
2017-07-26T01:28:47.320Z,3.42
2017-07-26T01:31:16.193Z,2.87
2017-07-26T01:33:45.094Z,3.22
2017-07-26T01:36:14.029Z,4.90
2017-07-26T01:38:42.916Z,3.90
2017-07-26T01:41:11.848Z,3.45
2017-07-26T01:43:40.752Z,3.53
2017-07-26T01:46:09.701Z,3.60
2017-07-26T01:48:38.615Z,2.90
2017-07-26T01:51:07.887Z,2.83
2017-07-26T01:53:37.058Z,3.17
2017-07-26T01:56:06.119Z,3.10
2017-07-26T01:58:35.103Z,3.10
2017-07-26T02:01:04.106Z,4.20
2017-07-26T02:03:32.998Z,3.10
2017-07-26T02:06:01.881Z,3.42
2017-07-26T02:08:30.763Z,2.70
2017-07-26T02:10:59.669Z,3.75
2017-07-26T02:13:28.534Z,3.15
2017-07-26T02:15:57.435Z,3.05
2017-07-26T02:18:26.376Z,3.37
2017-07-26T02:20:55.272Z,2.90
2017-07-26T02:23:24.199Z,2.80
2017-07-26T02:25:53.092Z,3.08
2017-07-26T02:28:21.999Z,2.55
2017-07-26T02:30:51.192Z,2.33
2017-07-26T02:33:20.121Z,2.50
2017-07-26T02:35:49.034Z,2.70
2017-07-26T02:38:17.924Z,2.33
2017-07-26T02:40:46.808Z,2.30
2017-07-26T02:44:35.060Z,2.05
2017-07-26T02:47:03.944Z,2.30
2017-07-26T02:49:33.067Z,2.20
2017-07-26T02:52:02.040Z,1.90
2017-07-26T02:54:30.930Z,2.25
2017-07-26T02:56:59.844Z,1.73
2017-07-26T02:59:28.718Z,2.35
2017-07-26T03:01:57.622Z,2.00
2017-07-26T03:04:26.553Z,2.40
2017-07-26T03:06:55.475Z,2.45
2017-07-26T03:09:24.414Z,1.92
2017-07-26T03:11:53.307Z,1.90
2017-07-26T03:14:22.198Z,1.83
2017-07-26T03:16:51.123Z,3.25
2017-07-26T03:19:20.043Z,1.77
2017-07-26T03:21:48.946Z,1.65
2017-07-26T03:24:18.155Z,1.95
2017-07-26T03:26:47.006Z,1.90
2017-07-26T03:29:15.896Z,1.70
2017-07-26T03:31:44.831Z,1.65
2017-07-26T03:34:13.744Z,1.62
2017-07-26T03:36:42.653Z,1.60
2017-07-26T03:39:11.575Z,1.73
2017-07-26T03:41:40.455Z,1.92
2017-07-26T03:44:09.414Z,3.17
2017-07-26T03:46:38.333Z,1.80
2017-07-26T03:50:26.624Z,2.03
2017-07-26T03:52:55.537Z,1.90
2017-07-26T03:55:24.414Z,1.77
2017-07-26T03:57:53.274Z,2.72
2017-07-26T04:00:22.268Z,1.60
2017-07-26T04:02:51.136Z,1.75
2017-07-26T04:05:20.033Z,1.73
2017-07-26T04:07:48.920Z,2.45
2017-07-26T04:10:17.847Z,2.15
2017-07-26T04:12:46.791Z,2.15
2017-07-26T04:15:15.703Z,1.90
2017-07-26T04:17:44.871Z,2.20
2017-07-26T04:20:13.739Z,2.97
2017-07-26T04:22:42.652Z,2.30
2017-07-26T04:25:11.539Z,2.00
2017-07-26T04:27:40.491Z,2.05
2017-07-26T04:30:09.694Z,1.90
2017-07-26T04:32:38.660Z,1.98
2017-07-26T04:35:07.562Z,2.15
2017-07-26T04:37:36.476Z,2.08
2017-07-26T04:40:05.460Z,1.70
2017-07-26T04:42:34.331Z,1.70
2017-07-26T04:45:03.252Z,1.50
2017-07-26T04:47:32.127Z,2.58
2017-07-26T04:50:01.110Z,1.70
2017-07-26T04:52:30.095Z,1.80
2017-07-26T04:54:59.024Z,1.67
2017-07-26T04:57:27.987Z,2.58
2017-07-26T04:59:56.883Z,2.28
2017-07-26T05:02:25.766Z,1.80
2017-07-26T05:04:54.649Z,2.10
2017-07-26T05:07:23.856Z,1.75
2017-07-26T05:09:52.839Z,1.73
2017-07-26T05:12:21.802Z,1.70
2017-07-26T05:14:50.772Z,1.80
2017-07-26T05:17:19.654Z,1.65
2017-07-26T05:19:48.815Z,1.83
2017-07-26T05:22:17.712Z,1.87
2017-07-26T05:24:46.676Z,1.65
2017-07-26T05:27:15.550Z,1.52
2017-07-26T05:29:44.494Z,2.55
2017-07-26T05:32:13.428Z,1.52
2017-07-26T05:34:48.994Z,2.20
2017-07-26T05:37:17.896Z,2.85
2017-07-26T05:39:46.803Z,1.65
2017-07-26T05:42:15.695Z,2.70
2017-07-26T05:44:44.594Z,1.85
2017-07-26T05:47:13.480Z,2.00
2017-07-26T05:49:42.427Z,2.70
2017-07-26T05:52:11.399Z,1.83
2017-07-26T05:54:40.363Z,1.90
2017-07-26T05:57:09.275Z,2.55
2017-07-26T05:59:38.181Z,1.90
2017-07-26T06:02:07.071Z,2.40
2017-07-26T06:04:35.980Z,2.50
2017-07-26T06:07:04.884Z,2.25
2017-07-26T06:09:33.809Z,2.70
2017-07-26T06:12:02.736Z,2.50
2017-07-26T06:14:31.616Z,2.62
2017-07-26T06:17:00.556Z,2.50
2017-07-26T06:19:29.496Z,2.80
2017-07-26T06:21:58.367Z,2.58
2017-07-26T06:24:27.302Z,2.97
2017-07-26T06:26:56.342Z,3.05
2017-07-26T06:29:25.271Z,2.90
2017-07-26T06:31:54.200Z,2.92
2017-07-26T06:34:23.166Z,4.43
2017-07-26T06:36:52.392Z,2.90
2017-07-26T06:39:21.299Z,3.03
2017-07-26T06:41:50.219Z,3.20
2017-07-26T06:44:19.131Z,3.25
2017-07-26T06:46:48.372Z,3.47
2017-07-26T06:49:17.755Z,4.30
2017-07-26T06:51:46.646Z,3.47
2017-07-26T06:54:15.590Z,3.72
2017-07-26T06:56:44.492Z,4.18
2017-07-26T06:59:13.392Z,3.60
2017-07-26T07:01:42.364Z,3.83
2017-07-26T07:04:11.335Z,3.85
2017-07-26T07:06:40.271Z,4.00
2017-07-26T07:09:09.251Z,4.20
2017-07-26T07:11:38.184Z,4.12
2017-07-26T07:14:07.061Z,4.12
2017-07-26T07:16:35.930Z,3.90
2017-07-26T07:19:04.875Z,4.40
2017-07-26T07:21:33.756Z,5.12
2017-07-26T07:24:02.743Z,4.85
2017-07-26T07:26:32.913Z,4.95
2017-07-26T07:29:01.875Z,5.12
2017-07-26T07:31:30.894Z,5.37
2017-07-26T07:33:59.872Z,5.20
2017-07-26T07:36:28.757Z,5.60
2017-07-26T07:38:57.704Z,5.45
2017-07-26T07:41:26.639Z,5.50
2017-07-26T07:43:55.555Z,7.05
2017-07-26T07:46:24.465Z,4.80
2017-07-26T07:48:53.456Z,5.15
2017-07-26T07:51:22.402Z,5.72
2017-07-26T07:53:51.354Z,5.25
2017-07-26T07:56:20.288Z,4.90
2017-07-26T07:58:49.228Z,4.90
2017-07-26T08:01:18.446Z,4.90
2017-07-26T08:03:47.363Z,5.30
2017-07-26T08:06:16.258Z,5.00
2017-07-26T08:08:45.153Z,5.65
2017-07-26T08:11:14.061Z,4.82
2017-07-26T08:13:43.026Z,5.25
2017-07-26T08:16:11.950Z,4.78
2017-07-26T08:18:41.004Z,4.80
2017-07-26T08:21:09.961Z,4.55
2017-07-26T08:23:38.891Z,4.90
2017-07-26T08:26:07.804Z,5.12
2017-07-26T08:28:36.755Z,6.45
2017-07-26T08:31:05.707Z,5.80
2017-07-26T08:33:34.658Z,5.45
2017-07-26T08:36:03.724Z,6.85
2017-07-26T08:38:32.731Z,6.93
2017-07-26T08:41:01.853Z,6.12
2017-07-26T08:43:30.732Z,6.62
2017-07-26T08:46:02.553Z,7.25
2017-07-26T08:48:31.536Z,6.65
2017-07-26T08:51:00.503Z,7.03
2017-07-26T08:53:29.559Z,6.85
2017-07-26T08:55:58.467Z,6.50
2017-07-26T08:58:27.383Z,6.65
2017-07-26T09:00:56.352Z,6.68
2017-07-26T09:03:25.291Z,6.90
2017-07-26T09:05:54.283Z,6.68
2017-07-26T09:08:23.226Z,6.07
2017-07-26T09:10:52.211Z,6.97
2017-07-26T09:13:21.198Z,6.72
2017-07-26T09:15:50.143Z,6.82
2017-07-26T09:18:19.078Z,6.75
2017-07-26T09:20:48.017Z,6.40
2017-07-26T09:23:16.966Z,6.30
2017-07-26T09:25:45.913Z,6.40
2017-07-26T09:28:14.870Z,5.45
2017-07-26T09:30:43.855Z,6.60
2017-07-26T09:33:12.884Z,5.90
2017-07-26T09:35:41.815Z,6.85
2017-07-26T09:38:10.830Z,5.70
2017-07-26T09:40:39.762Z,5.95
2017-07-26T09:43:09.563Z,5.90
2017-07-26T09:45:38.491Z,5.80
2017-07-26T09:48:07.452Z,5.28
2017-07-26T09:50:36.410Z,5.90
2017-07-26T09:53:05.347Z,6.03
2017-07-26T09:55:34.330Z,6.22
2017-07-26T09:58:03.615Z,5.55
2017-07-26T10:00:32.624Z,6.37
2017-07-26T10:03:01.644Z,6.37
2017-07-26T10:05:30.561Z,6.15
2017-07-26T10:09:01.851Z,6.97
2017-07-26T10:11:30.846Z,6.62
2017-07-26T10:13:59.773Z,7.72
2017-07-26T10:16:28.743Z,7.80
2017-07-26T10:18:57.663Z,7.07
2017-07-26T10:21:26.588Z,9.10
2017-07-26T10:23:55.536Z,8.20
2017-07-26T10:26:24.464Z,7.80
2017-07-26T10:28:53.475Z,11.02
2017-07-26T10:31:22.518Z,8.40
2017-07-26T10:33:51.458Z,8.50
2017-07-26T10:36:20.345Z,8.50
2017-07-26T10:38:49.620Z,7.40
2017-07-26T10:41:18.567Z,8.07
2017-07-26T10:43:47.531Z,8.48
2017-07-26T10:46:16.458Z,8.70
2017-07-26T10:48:45.420Z,8.15
2017-07-26T10:51:14.344Z,10.20
2017-07-26T10:53:43.370Z,10.15
2017-07-26T10:56:12.289Z,11.75
2017-07-26T10:58:41.258Z,10.57
2017-07-26T11:01:10.196Z,9.77
2017-07-26T11:03:39.204Z,9.85
2017-07-26T11:06:08.164Z,10.00
2017-07-26T11:08:37.146Z,10.57
2017-07-26T11:11:06.090Z,12.85
2017-07-26T11:13:35.098Z,11.48
2017-07-26T11:16:04.157Z,6.97
2017-07-26T11:18:33.187Z,7.35
2017-07-26T11:21:02.145Z,8.23
2017-07-26T11:23:31.320Z,8.45
2017-07-26T11:26:00.272Z,8.45
2017-07-26T11:28:29.190Z,8.05
2017-07-26T11:30:58.146Z,6.62
2017-07-26T11:33:27.079Z,5.80
2017-07-26T11:35:55.980Z,6.55
2017-07-26T11:38:24.950Z,6.20
2017-07-26T11:40:53.992Z,7.25
2017-07-26T11:43:22.945Z,6.10
2017-07-26T11:45:51.903Z,7.97
2017-07-26T11:48:20.790Z,6.15
2017-07-26T11:50:49.682Z,5.15
2017-07-26T11:53:18.644Z,5.70
2017-07-26T11:55:47.601Z,4.70
2017-07-26T11:58:16.524Z,5.20
2017-07-26T12:00:45.489Z,5.30
2017-07-26T12:03:14.492Z,5.82
2017-07-26T12:05:43.434Z,4.53
2017-07-26T12:08:12.424Z,4.95
2017-07-26T12:10:41.367Z,4.85
2017-07-26T12:13:10.361Z,4.65
2017-07-26T12:15:39.346Z,4.60
2017-07-26T12:18:08.299Z,4.85
2017-07-26T12:20:37.241Z,5.55
2017-07-26T12:23:06.249Z,5.25
2017-07-26T12:25:35.193Z,4.62
2017-07-26T12:28:04.174Z,5.47
2017-07-26T12:30:33.165Z,5.72
2017-07-26T12:33:02.127Z,5.37
2017-07-26T12:35:31.095Z,5.78
2017-07-26T12:38:00.010Z,5.72
2017-07-26T12:40:28.879Z,5.82
2017-07-26T12:42:57.853Z,6.22
2017-07-26T12:45:26.785Z,6.00
2017-07-26T12:47:55.714Z,5.97
2017-07-26T12:50:24.682Z,5.65
2017-07-26T12:52:53.647Z,5.97
2017-07-26T12:55:22.650Z,5.82
2017-07-26T12:57:51.586Z,5.00
2017-07-26T13:00:20.514Z,5.87
2017-07-26T13:02:49.452Z,6.00
2017-07-26T13:05:18.410Z,5.87
2017-07-26T13:07:47.363Z,5.50
2017-07-26T13:10:16.931Z,6.80
2017-07-26T13:12:45.934Z,6.28
2017-07-26T13:15:14.938Z,5.37
2017-07-26T13:17:43.945Z,5.28
2017-07-26T13:20:12.867Z,5.35
2017-07-26T13:22:41.829Z,5.18
2017-07-26T13:25:10.747Z,5.07
2017-07-26T13:27:39.755Z,5.22
2017-07-26T13:30:08.776Z,5.80
2017-07-26T13:32:37.715Z,5.80
2017-07-26T13:35:06.748Z,6.62
2017-07-26T13:37:35.770Z,5.70
2017-07-26T13:40:04.698Z,5.70
2017-07-26T13:42:33.641Z,5.95
2017-07-26T13:45:05.738Z,6.47
2017-07-26T13:47:34.724Z,6.03
2017-07-26T13:50:03.733Z,6.32
2017-07-26T13:52:32.659Z,5.78
2017-07-26T13:55:01.599Z,6.53
2017-07-26T13:57:30.544Z,7.82
2017-07-26T13:59:59.483Z,6.95
2017-07-26T14:02:28.788Z,6.87
2017-07-26T14:04:57.739Z,5.65
2017-07-26T14:07:26.723Z,5.85
2017-07-26T14:09:55.962Z,8.20
2017-07-26T14:12:25.010Z,6.90
2017-07-26T14:14:53.969Z,6.80
2017-07-26T14:17:23.694Z,7.30
2017-07-26T14:19:52.628Z,6.75
2017-07-26T14:22:21.649Z,7.65
2017-07-26T14:24:50.602Z,6.90
2017-07-26T14:27:19.817Z,7.07
2017-07-26T14:29:48.764Z,7.80
2017-07-26T14:32:17.758Z,6.45
2017-07-26T14:34:46.688Z,8.20
2017-07-26T14:37:15.665Z,8.80
2017-07-26T14:39:44.648Z,7.55
2017-07-26T14:42:13.623Z,7.68
2017-07-26T14:44:42.584Z,8.48
2017-07-26T14:47:11.545Z,6.05
2017-07-26T14:49:41.794Z,7.32
2017-07-26T14:52:10.898Z,7.53
2017-07-26T14:54:40.268Z,8.60
2017-07-26T14:57:09.181Z,7.65
2017-07-26T14:59:38.150Z,6.75
2017-07-26T15:02:07.283Z,7.30
2017-07-26T15:04:36.221Z,7.60
2017-07-26T15:07:05.173Z,7.55
2017-07-26T15:09:34.466Z,6.95
2017-07-26T15:12:03.398Z,6.53
2017-07-26T15:14:32.414Z,6.65
2017-07-26T15:17:01.361Z,7.12
2017-07-26T15:19:30.248Z,7.07
2017-07-26T15:21:59.262Z,6.62
2017-07-26T15:24:28.275Z,7.90
2017-07-26T15:26:57.292Z,7.47
2017-07-26T15:29:26.299Z,8.00
2017-07-26T15:32:02.025Z,8.43
2017-07-26T15:34:31.000Z,7.43
2017-07-26T15:36:59.950Z,7.50
2017-07-26T15:39:28.948Z,10.05
2017-07-26T15:41:57.916Z,7.53
2017-07-26T15:44:26.958Z,7.45
2017-07-26T15:46:55.973Z,9.82
2017-07-26T15:49:39.532Z,10.55
2017-07-26T15:52:08.927Z,9.23
2017-07-26T15:54:37.934Z,8.50
2017-07-26T15:57:07.042Z,8.50
2017-07-26T15:59:36.064Z,8.45
2017-07-26T16:02:05.067Z,12.90
2017-07-26T16:04:34.092Z,8.65
2017-07-26T16:07:03.108Z,9.13
2017-07-26T16:09:32.119Z,9.20
2017-07-26T16:12:04.296Z,11.00
2017-07-26T16:14:33.288Z,9.00
2017-07-26T16:17:02.635Z,8.90
2017-07-26T16:19:34.616Z,8.20
2017-07-26T16:22:03.586Z,9.55
2017-07-26T16:25:35.315Z,10.20
2017-07-26T16:28:04.361Z,10.30
2017-07-26T16:30:33.296Z,10.35
2017-07-26T16:33:02.412Z,10.85
2017-07-26T16:35:31.411Z,11.10
2017-07-26T16:38:00.476Z,12.35
2017-07-26T16:40:29.536Z,10.50
2017-07-26T16:42:58.486Z,12.32
2017-07-26T16:45:27.515Z,12.40
2017-07-26T16:47:56.564Z,12.07
2017-07-26T16:50:25.556Z,12.30
2017-07-26T16:52:54.498Z,12.30
2017-07-26T16:55:23.467Z,11.12
2017-07-26T16:57:52.499Z,11.30
2017-07-26T17:00:21.486Z,11.93
2017-07-26T17:02:50.475Z,11.02
2017-07-26T17:05:19.551Z,11.75
2017-07-26T17:07:48.507Z,11.27
2017-07-26T17:10:47.639Z,10.80
2017-07-26T17:13:16.652Z,11.85
2017-07-26T17:15:45.623Z,12.70
2017-07-26T17:18:14.586Z,11.50
2017-07-26T17:20:43.593Z,12.00
2017-07-26T17:23:12.598Z,11.85
2017-07-26T17:25:41.597Z,12.18
2017-07-26T17:28:10.556Z,12.50
2017-07-26T17:30:39.626Z,12.77
2017-07-26T17:33:08.723Z,11.80
2017-07-26T17:35:37.761Z,11.85
2017-07-26T17:39:09.335Z,11.27
2017-07-26T17:41:38.380Z,11.15
2017-07-26T17:44:07.365Z,12.68
2017-07-26T17:46:36.387Z,12.00
2017-07-26T17:49:05.660Z,11.73
2017-07-26T17:51:34.680Z,11.20
2017-07-26T17:54:03.672Z,10.80
2017-07-26T17:56:32.608Z,11.05
2017-07-26T17:59:01.596Z,11.60
2017-07-26T18:01:30.564Z,11.07
2017-07-26T18:03:59.583Z,10.88
2017-07-26T18:06:28.552Z,10.38
2017-07-26T18:08:57.527Z,12.37
2017-07-26T18:11:26.536Z,11.23
2017-07-26T18:13:55.537Z,10.57
2017-07-26T18:16:24.466Z,10.95
2017-07-26T18:18:53.484Z,11.12
2017-07-26T18:21:22.441Z,10.63
2017-07-26T18:23:51.389Z,10.40
2017-07-26T18:26:20.380Z,11.30
2017-07-26T18:28:49.399Z,10.30
2017-07-26T18:31:18.563Z,10.75
2017-07-26T18:34:50.073Z,9.40
2017-07-26T18:37:19.139Z,10.50
2017-07-26T18:39:48.347Z,10.60
2017-07-26T18:42:17.308Z,10.60
2017-07-26T18:44:46.377Z,11.00
2017-07-26T18:47:15.363Z,12.02
2017-07-26T18:49:44.304Z,10.43
2017-07-26T18:52:13.312Z,10.18
2017-07-26T18:54:42.403Z,11.18
2017-07-26T18:57:11.535Z,10.35
2017-07-26T18:59:40.534Z,10.05
2017-07-26T19:02:09.734Z,9.95
2017-07-26T19:04:38.748Z,10.85
2017-07-26T19:07:07.708Z,11.20
2017-07-26T19:09:36.670Z,11.95
2017-07-26T19:12:05.728Z,10.25
2017-07-26T19:14:34.779Z,12.77
2017-07-26T19:17:04.070Z,14.13
2017-07-26T19:19:33.203Z,11.40
2017-07-26T19:22:02.198Z,13.48
2017-07-26T19:24:31.181Z,11.68
2017-07-26T19:27:00.192Z,11.10
2017-07-26T19:29:29.299Z,13.27
2017-07-26T19:31:58.419Z,12.88
2017-07-26T19:34:27.396Z,11.75
2017-07-26T19:36:56.476Z,11.68
2017-07-26T19:39:25.416Z,13.98
2017-07-26T19:41:54.407Z,10.30
2017-07-26T19:44:23.335Z,11.35
2017-07-26T19:46:52.320Z,11.70
2017-07-26T19:49:21.238Z,11.35
2017-07-26T19:51:50.254Z,10.57
2017-07-26T19:54:19.208Z,11.43
2017-07-26T19:56:48.245Z,11.80
2017-07-26T19:59:18.815Z,12.63
2017-07-26T20:01:47.836Z,14.27
2017-07-26T20:04:16.890Z,12.65
2017-07-26T20:06:45.871Z,12.45
2017-07-26T20:09:14.785Z,12.45
2017-07-26T20:11:43.716Z,13.10
2017-07-26T20:14:12.751Z,12.70
2017-07-26T20:16:41.834Z,13.25
2017-07-26T20:19:10.790Z,18.60
2017-07-26T20:21:40.430Z,11.77
2017-07-26T20:24:09.492Z,14.00
2017-07-26T20:26:38.600Z,14.82
2017-07-26T20:30:09.984Z,19.62
2017-07-26T20:32:39.577Z,13.30
2017-07-26T20:35:08.601Z,14.18
2017-07-26T20:37:37.603Z,13.38
2017-07-26T20:40:06.634Z,13.10
2017-07-26T20:42:35.607Z,13.93
2017-07-26T20:45:04.577Z,13.05
2017-07-26T20:47:33.623Z,13.50
2017-07-26T20:50:02.572Z,17.20
2017-07-26T20:52:31.493Z,12.63
2017-07-26T20:55:00.547Z,13.80
2017-07-26T20:57:29.511Z,13.05
2017-07-26T20:59:58.561Z,12.70
2017-07-26T21:02:27.583Z,13.18
2017-07-26T21:04:56.550Z,12.65
2017-07-26T21:07:25.501Z,11.77
2017-07-26T21:09:54.455Z,12.63
2017-07-26T21:12:23.499Z,13.30
2017-07-26T21:14:52.569Z,11.95
2017-07-26T21:17:21.502Z,11.50
2017-07-26T21:19:50.518Z,13.07
2017-07-26T21:22:19.479Z,12.48
2017-07-26T21:24:48.373Z,12.07
2017-07-26T21:27:17.370Z,12.95
2017-07-26T21:29:46.329Z,12.70
2017-07-26T21:32:15.389Z,12.10
2017-07-26T21:34:44.326Z,14.07
2017-07-26T21:37:13.340Z,13.07
2017-07-26T21:39:42.959Z,11.93
2017-07-26T21:42:11.960Z,14.25
2017-07-26T21:44:40.847Z,13.57
2017-07-26T21:47:09.828Z,12.98
2017-07-26T21:49:38.797Z,14.32
2017-07-26T21:52:07.770Z,15.00
2017-07-26T21:54:36.698Z,14.25
2017-07-26T21:57:05.658Z,15.57
2017-07-26T22:00:37.298Z,14.93
2017-07-26T22:03:06.313Z,15.90
2017-07-26T22:05:35.228Z,17.10
2017-07-26T22:08:04.211Z,17.10
2017-07-26T22:10:33.187Z,17.77
2017-07-26T22:13:02.144Z,16.95
2017-07-26T22:15:31.134Z,17.15
2017-07-26T22:19:02.620Z,17.48
2017-07-26T22:21:31.571Z,16.00
2017-07-26T22:24:00.527Z,18.40
2017-07-26T22:26:29.482Z,17.00
2017-07-26T22:28:58.408Z,21.65
2017-07-26T22:31:27.314Z,15.32
2017-07-26T22:33:56.218Z,14.87
2017-07-26T22:36:25.150Z,15.77
2017-07-26T22:38:54.100Z,15.10
2017-07-26T22:41:23.009Z,15.88
2017-07-26T22:43:52.235Z,15.77
2017-07-26T22:46:21.143Z,14.65
2017-07-26T22:48:50.079Z,15.00
2017-07-26T22:51:19.029Z,16.00
2017-07-26T22:53:47.968Z,14.57
2017-07-26T22:56:16.858Z,15.35
2017-07-26T22:58:45.822Z,14.80
2017-07-26T23:01:14.700Z,14.35
2017-07-26T23:03:43.653Z,16.33
2017-07-26T23:06:15.496Z,16.00
2017-07-26T23:08:44.456Z,15.73
2017-07-26T23:11:13.396Z,19.42
2017-07-26T23:13:42.319Z,15.27
2017-07-26T23:16:11.208Z,14.68
2017-07-26T23:18:40.972Z,16.83
2017-07-26T23:21:09.875Z,17.12
2017-07-26T23:24:58.257Z,14.98
2017-07-26T23:27:27.171Z,16.75
2017-07-26T23:29:56.052Z,16.27
2017-07-26T23:32:24.906Z,21.35
2017-07-26T23:34:54.118Z,17.87
2017-07-26T23:37:23.043Z,16.87
2017-07-26T23:39:51.967Z,17.52
2017-07-26T23:42:20.941Z,16.42
2017-07-26T23:44:49.842Z,16.83
2017-07-26T23:47:18.737Z,19.42
